Chertsey, United Kingdom
Current Conditions -  °F | °C
As of 4:50 PM on Tuesday 27 Jan 2015 (Local Time) from EGLL Reporting Station
Broken Clouds Broken Clouds  
Wind Chill:   Ceiling: 2700
Heat Index:   Visibility: 6mi
Dew Point:   Wind: 7mph
Humidity: 81%   Direction: 280°W
Pressure: 30.27"   Gusts: NA
Location:  51.39°N, 0.51°W
Report Text: EGLL 271650Z 28006KT 9999 FEW023 BKN027 07/04 Q1025 NOSIG
Loading
Personal Weather Stations






























Interactive Weather Map New forecast layout! Learn more

10-Day Weather Forecast

Advertisements
Track Severe Weather on mobile